sensor_id;sensor_type;location;lat;lon;timestamp;pressure;altitude;pressure_sealevel;temperature;humidity
18900;BME280;9582;52.018;6.306;2022-12-08T00:00:24;100929.47;;;4.04;100.00
18900;BME280;9582;52.018;6.306;2022-12-08T00:02:51;100924.47;;;3.92;100.00
18900;BME280;9582;52.018;6.306;2022-12-08T00:05:17;100921.06;;;3.92;100.00
18900;BME280;9582;52.018;6.306;2022-12-08T00:08:01;100910.69;;;3.93;100.00
18900;BME280;9582;52.018;6.306;2022-12-08T00:10:46;100910.72;;;3.92;100.00
18900;BME280;9582;52.018;6.306;2022-12-08T00:13:12;100898.59;;;3.94;100.00
18900;BME280;9582;52.018;6.306;2022-12-08T00:15:40;100907.22;;;3.94;100.00
18900;BME280;9582;52.018;6.306;2022-12-08T00:18:06;100893.38;;;3.97;100.00
18900;BME280;9582;52.018;6.306;2022-12-08T00:20:33;100889.13;;;3.93;100.00
18900;BME280;9582;52.018;6.306;2022-12-08T00:22:59;100887.44;;;3.92;100.00
18900;BME280;9582;52.018;6.306;2022-12-08T00:25:28;100890.84;;;3.92;100.00
18900;BME280;9582;52.018;6.306;2022-12-08T00:27:55;100879.63;;;3.93;100.00
18900;BME280;9582;52.018;6.306;2022-12-08T00:30:21;100873.56;;;3.96;100.00
18900;BME280;9582;52.018;6.306;2022-12-08T00:32:49;100875.31;;;3.94;100.00
18900;BME280;9582;52.018;6.306;2022-12-08T00:35:16;100864.97;;;3.94;100.00
18900;BME280;9582;52.018;6.306;2022-12-08T00:37:42;100877.03;;;3.95;100.00
18900;BME280;9582;52.018;6.306;2022-12-08T00:40:09;100861.56;;;3.92;100.00
18900;BME280;9582;52.018;6.306;2022-12-08T00:42:36;100866.75;;;3.92;100.00
18900;BME280;9582;52.018;6.306;2022-12-08T00:45:03;100859.81;;;3.92;100.00
18900;BME280;9582;52.018;6.306;2022-12-08T00:47:29;100854.63;;;3.94;100.00
18900;BME280;9582;52.018;6.306;2022-12-08T00:49:57;100858.81;;;4.01;100.00
18900;BME280;9582;52.018;6.306;2022-12-08T00:52:24;100854.53;;;4.00;100.00
18900;BME280;9582;52.018;6.306;2022-12-08T00:54:50;100858.22;;;4.33;100.00
18900;BME280;9582;52.018;6.306;2022-12-08T00:57:17;100856.78;;;4.18;100.00
18900;BME280;9582;52.018;6.306;2022-12-08T00:59:43;100853.53;;;4.07;100.00
18900;BME280;9582;52.018;6.306;2022-12-08T01:02:10;100849.38;;;3.98;100.00
18900;BME280;9582;52.018;6.306;2022-12-08T01:04:37;100848.50;;;3.98;100.00
18900;BME280;9582;52.018;6.306;2022-12-08T01:07:04;100845.78;;;4.07;100.00
18900;BME280;9582;52.018;6.306;2022-12-08T01:09:31;100846.53;;;4.12;100.00
18900;BME280;9582;52.018;6.306;2022-12-08T01:11:58;100844.00;;;4.11;100.00
18900;BME280;9582;52.018;6.306;2022-12-08T01:14:24;100839.72;;;4.54;100.00
18900;BME280;9582;52.018;6.306;2022-12-08T01:16:51;100838.69;;;4.61;100.00
18900;BME280;9582;52.018;6.306;2022-12-08T01:19:18;100847.03;;;4.32;100.00
18900;BME280;9582;52.018;6.306;2022-12-08T01:21:45;100840.41;;;4.18;100.00
18900;BME280;9582;52.018;6.306;2022-12-08T01:24:15;100844.69;;;4.19;100.00
18900;BME280;9582;52.018;6.306;2022-12-08T01:26:42;100836.94;;;4.20;100.00
18900;BME280;9582;52.018;6.306;2022-12-08T01:29:09;100842.06;;;4.22;100.00
18900;BME280;9582;52.018;6.306;2022-12-08T01:31:35;100838.72;;;4.15;100.00
18900;BME280;9582;52.018;6.306;2022-12-08T01:34:02;100842.63;;;4.37;100.00
18900;BME280;9582;52.018;6.306;2022-12-08T01:36:30;100846.31;;;4.24;100.00
18900;BME280;9582;52.018;6.306;2022-12-08T01:38:59;100836.78;;;4.28;100.00
18900;BME280;9582;52.018;6.306;2022-12-08T01:41:29;100842.81;;;4.27;100.00
18900;BME280;9582;52.018;6.306;2022-12-08T01:43:58;100844.50;;;4.29;100.00
18900;BME280;9582;52.018;6.306;2022-12-08T01:46:27;100848.13;;;4.63;100.00
18900;BME280;9582;52.018;6.306;2022-12-08T01:49:00;100846.00;;;4.42;100.00
18900;BME280;9582;52.018;6.306;2022-12-08T01:51:30;100846.41;;;4.65;100.00
18900;BME280;9582;52.018;6.306;2022-12-08T01:53:58;100851.97;;;4.44;100.00
18900;BME280;9582;52.018;6.306;2022-12-08T01:56:29;100840.72;;;4.47;100.00
18900;BME280;9582;52.018;6.306;2022-12-08T01:58:58;100833.84;;;4.46;100.00
18900;BME280;9582;52.018;6.306;2022-12-08T02:01:24;100836.31;;;4.50;100.00
18900;BME280;9582;52.018;6.306;2022-12-08T02:03:54;100829.47;;;4.48;100.00
18900;BME280;9582;52.018;6.306;2022-12-08T02:06:22;100824.25;;;4.49;100.00
18900;BME280;9582;52.018;6.306;2022-12-08T02:08:49;100825.00;;;4.54;100.00
18900;BME280;9582;52.018;6.306;2022-12-08T02:11:19;100821.59;;;4.54;100.00
18900;BME280;9582;52.018;6.306;2022-12-08T02:13:48;100824.19;;;4.52;100.00
18900;BME280;9582;52.018;6.306;2022-12-08T02:16:25;100814.75;;;4.51;100.00
18900;BME280;9582;52.018;6.306;2022-12-08T02:19:12;100817.25;;;4.54;100.00
18900;BME280;9582;52.018;6.306;2022-12-08T02:21:50;100810.31;;;4.56;100.00
18900;BME280;9582;52.018;6.306;2022-12-08T02:24:22;100811.19;;;4.57;100.00
18900;BME280;9582;52.018;6.306;2022-12-08T02:27:27;100807.69;;;4.58;100.00
18900;BME280;9582;52.018;6.306;2022-12-08T02:30:11;100803.56;;;4.89;100.00
18900;BME280;9582;52.018;6.306;2022-12-08T02:33:08;100802.25;;;4.70;100.00
18900;BME280;9582;52.018;6.306;2022-12-08T02:35:45;100795.34;;;4.71;100.00
18900;BME280;9582;52.018;6.306;2022-12-08T02:38:27;100796.59;;;4.91;100.00
18900;BME280;9582;52.018;6.306;2022-12-08T02:41:05;100778.50;;;4.90;100.00
18900;BME280;9582;52.018;6.306;2022-12-08T02:43:37;100784.63;;;4.87;100.00
18900;BME280;9582;52.018;6.306;2022-12-08T02:46:09;100781.31;;;4.81;100.00
18900;BME280;9582;52.018;6.306;2022-12-08T02:48:37;100775.25;;;4.80;100.00
18900;BME280;9582;52.018;6.306;2022-12-08T02:51:05;100768.88;;;4.96;100.00
18900;BME280;9582;52.018;6.306;2022-12-08T02:53:33;100777.66;;;4.89;100.00
18900;BME280;9582;52.018;6.306;2022-12-08T02:56:11;100768.22;;;4.87;100.00
18900;BME280;9582;52.018;6.306;2022-12-08T02:58:51;100764.91;;;4.80;100.00
18900;BME280;9582;52.018;6.306;2022-12-08T03:01:33;100765.88;;;4.75;100.00
18900;BME280;9582;52.018;6.306;2022-12-08T03:04:05;100760.69;;;4.76;100.00
18900;BME280;9582;52.018;6.306;2022-12-08T03:06:43;100760.78;;;4.72;100.00
18900;BME280;9582;52.018;6.306;2022-12-08T03:09:16;100769.28;;;4.78;100.00
18900;BME280;9582;52.018;6.306;2022-12-08T03:11:47;100772.00;;;4.72;100.00
18900;BME280;9582;52.018;6.306;2022-12-08T03:14:16;100761.53;;;4.77;100.00
18900;BME280;9582;52.018;6.306;2022-12-08T03:16:46;100748.66;;;4.74;100.00
18900;BME280;9582;52.018;6.306;2022-12-08T03:19:16;100746.78;;;4.80;100.00
18900;BME280;9582;52.018;6.306;2022-12-08T03:21:48;100749.53;;;4.73;100.00
18900;BME280;9582;52.018;6.306;2022-12-08T03:24:16;100746.19;;;4.68;100.00
18900;BME280;9582;52.018;6.306;2022-12-08T03:26:47;100736.66;;;4.70;100.00
18900;BME280;9582;52.018;6.306;2022-12-08T03:29:16;100740.09;;;4.70;100.00
18900;BME280;9582;52.018;6.306;2022-12-08T03:31:48;100733.28;;;4.66;100.00
18900;BME280;9582;52.018;6.306;2022-12-08T03:34:16;100730.69;;;5.03;100.00
18900;BME280;9582;52.018;6.306;2022-12-08T03:36:45;100719.25;;;4.76;100.00
18900;BME280;9582;52.018;6.306;2022-12-08T03:39:12;100721.59;;;4.87;100.00
18900;BME280;9582;52.018;6.306;2022-12-08T03:41:39;100717.53;;;4.75;100.00
18900;BME280;9582;52.018;6.306;2022-12-08T03:44:05;100721.38;;;4.96;100.00
18900;BME280;9582;52.018;6.306;2022-12-08T03:46:32;100715.00;;;4.74;100.00
18900;BME280;9582;52.018;6.306;2022-12-08T03:48:58;100715.69;;;4.80;100.00
18900;BME280;9582;52.018;6.306;2022-12-08T03:51:25;100709.22;;;4.98;100.00
18900;BME280;9582;52.018;6.306;2022-12-08T03:53:53;100703.91;;;4.67;100.00
18900;BME280;9582;52.018;6.306;2022-12-08T03:56:23;100700.66;;;4.59;100.00
18900;BME280;9582;52.018;6.306;2022-12-08T03:58:50;100707.56;;;4.58;100.00
18900;BME280;9582;52.018;6.306;2022-12-08T04:01:17;100707.56;;;4.95;100.00
18900;BME280;9582;52.018;6.306;2022-12-08T04:03:44;100704.78;;;5.03;100.00
18900;BME280;9582;52.018;6.306;2022-12-08T04:06:10;100703.00;;;4.70;100.00
18900;BME280;9582;52.018;6.306;2022-12-08T04:08:37;100696.25;;;4.62;100.00
18900;BME280;9582;52.018;6.306;2022-12-08T04:11:05;100697.94;;;4.63;100.00
18900;BME280;9582;52.018;6.306;2022-12-08T04:13:32;100693.69;;;4.61;100.00
18900;BME280;9582;52.018;6.306;2022-12-08T04:15:59;100688.50;;;4.62;100.00
18900;BME280;9582;52.018;6.306;2022-12-08T04:18:26;100688.03;;;5.17;100.00
18900;BME280;9582;52.018;6.306;2022-12-08T04:20:52;100686.44;;;5.12;100.00
18900;BME280;9582;52.018;6.306;2022-12-08T04:23:19;100683.91;;;5.09;100.00
18900;BME280;9582;52.018;6.306;2022-12-08T04:25:45;100682.41;;;5.00;100.00
18900;BME280;9582;52.018;6.306;2022-12-08T04:28:13;100683.09;;;5.07;100.00
18900;BME280;9582;52.018;6.306;2022-12-08T04:30:40;100682.00;;;4.82;100.00
18900;BME280;9582;52.018;6.306;2022-12-08T04:33:07;100684.19;;;4.98;100.00
18900;BME280;9582;52.018;6.306;2022-12-08T04:35:33;100677.44;;;4.91;100.00
18900;BME280;9582;52.018;6.306;2022-12-08T04:38:00;100676.66;;;4.88;100.00
18900;BME280;9582;52.018;6.306;2022-12-08T04:40:26;100670.91;;;4.75;100.00
18900;BME280;9582;52.018;6.306;2022-12-08T04:42:53;100667.03;;;4.93;100.00
18900;BME280;9582;52.018;6.306;2022-12-08T04:45:21;100667.16;;;4.88;100.00
18900;BME280;9582;52.018;6.306;2022-12-08T04:47:47;100663.53;;;4.95;100.00
18900;BME280;9582;52.018;6.306;2022-12-08T04:50:14;100664.16;;;5.05;100.00
18900;BME280;9582;52.018;6.306;2022-12-08T04:52:40;100676.91;;;5.12;100.00
18900;BME280;9582;52.018;6.306;2022-12-08T04:55:07;100667.34;;;5.14;100.00
18900;BME280;9582;52.018;6.306;2022-12-08T04:57:34;100668.09;;;5.19;100.00
18900;BME280;9582;52.018;6.306;2022-12-08T05:00:01;100670.44;;;4.95;100.00
18900;BME280;9582;52.018;6.306;2022-12-08T05:02:29;100671.44;;;4.89;100.00
18900;BME280;9582;52.018;6.306;2022-12-08T05:04:56;100668.03;;;4.87;100.00
18900;BME280;9582;52.018;6.306;2022-12-08T05:07:23;100663.75;;;4.86;100.00
18900;BME280;9582;52.018;6.306;2022-12-08T05:09:50;100669.59;;;4.94;100.00
18900;BME280;9582;52.018;6.306;2022-12-08T05:12:16;100659.22;;;4.94;100.00
18900;BME280;9582;52.018;6.306;2022-12-08T05:14:43;100663.81;;;4.83;100.00
18900;BME280;9582;52.018;6.306;2022-12-08T05:17:09;100665.72;;;4.75;100.00
18900;BME280;9582;52.018;6.306;2022-12-08T05:19:37;100666.72;;;4.70;100.00
18900;BME280;9582;52.018;6.306;2022-12-08T05:22:04;100672.88;;;4.65;100.00
18900;BME280;9582;52.018;6.306;2022-12-08T05:24:30;100670.13;;;4.72;100.00
18900;BME280;9582;52.018;6.306;2022-12-08T05:26:57;100671.97;;;4.66;100.00
18900;BME280;9582;52.018;6.306;2022-12-08T05:29:23;100664.94;;;4.72;100.00
18900;BME280;9582;52.018;6.306;2022-12-08T05:31:50;100669.31;;;4.71;100.00
18900;BME280;9582;52.018;6.306;2022-12-08T05:34:16;100663.19;;;4.74;100.00
18900;BME280;9582;52.018;6.306;2022-12-08T05:36:45;100657.16;;;4.73;100.00
18900;BME280;9582;52.018;6.306;2022-12-08T05:39:12;100655.38;;;4.75;100.00
18900;BME280;9582;52.018;6.306;2022-12-08T05:41:38;100657.78;;;4.83;100.00
18900;BME280;9582;52.018;6.306;2022-12-08T05:44:05;100654.63;;;5.39;100.00
18900;BME280;9582;52.018;6.306;2022-12-08T05:46:32;100645.22;;;4.66;100.00
18900;BME280;9582;52.018;6.306;2022-12-08T05:48:59;100643.69;;;4.57;100.00
18900;BME280;9582;52.018;6.306;2022-12-08T05:51:27;100646.28;;;4.57;100.00
18900;BME280;9582;52.018;6.306;2022-12-08T05:53:55;100646.47;;;4.51;100.00
18900;BME280;9582;52.018;6.306;2022-12-08T05:56:22;100646.34;;;4.54;100.00
18900;BME280;9582;52.018;6.306;2022-12-08T05:58:49;100650.84;;;4.48;100.00
18900;BME280;9582;52.018;6.306;2022-12-08T06:01:20;100647.34;;;4.49;100.00
18900;BME280;9582;52.018;6.306;2022-12-08T06:03:47;100637.78;;;4.52;100.00
18900;BME280;9582;52.018;6.306;2022-12-08T06:06:14;100649.97;;;4.47;100.00
18900;BME280;9582;52.018;6.306;2022-12-08T06:08:40;100654.06;;;4.57;100.00
18900;BME280;9582;52.018;6.306;2022-12-08T06:11:08;100643.06;;;4.48;100.00
18900;BME280;9582;52.018;6.306;2022-12-08T06:13:35;100638.63;;;4.53;100.00
18900;BME280;9582;52.018;6.306;2022-12-08T06:16:05;100636.91;;;4.53;100.00
18900;BME280;9582;52.018;6.306;2022-12-08T06:18:32;100639.50;;;4.53;100.00
18900;BME280;9582;52.018;6.306;2022-12-08T06:21:03;100641.19;;;4.54;100.00
18900;BME280;9582;52.018;6.306;2022-12-08T06:23:30;100636.84;;;4.55;100.00
18900;BME280;9582;52.018;6.306;2022-12-08T06:25:59;100640.34;;;4.54;100.00
18900;BME280;9582;52.018;6.306;2022-12-08T06:28:28;100641.28;;;4.51;100.00
18900;BME280;9582;52.018;6.306;2022-12-08T06:30:54;100641.19;;;4.54;100.00
18900;BME280;9582;52.018;6.306;2022-12-08T06:33:21;100647.16;;;4.58;100.00
18900;BME280;9582;52.018;6.306;2022-12-08T06:35:48;100640.56;;;4.45;100.00
18900;BME280;9582;52.018;6.306;2022-12-08T06:38:14;100644.59;;;4.92;100.00
18900;BME280;9582;52.018;6.306;2022-12-08T06:40:41;100643.88;;;4.50;100.00
18900;BME280;9582;52.018;6.306;2022-12-08T06:43:07;100641.34;;;4.48;100.00
18900;BME280;9582;52.018;6.306;2022-12-08T06:45:35;100639.63;;;4.47;100.00
18900;BME280;9582;52.018;6.306;2022-12-08T06:48:02;100642.25;;;4.46;100.00
18900;BME280;9582;52.018;6.306;2022-12-08T06:50:29;100640.34;;;4.54;100.00
18900;BME280;9582;52.018;6.306;2022-12-08T06:52:56;100649.13;;;4.48;100.00
18900;BME280;9582;52.018;6.306;2022-12-08T06:55:23;100651.75;;;4.45;100.00
18900;BME280;9582;52.018;6.306;2022-12-08T06:57:49;100650.03;;;4.46;100.00
18900;BME280;9582;52.018;6.306;2022-12-08T07:00:17;100654.47;;;4.39;100.00
18900;BME280;9582;52.018;6.306;2022-12-08T07:02:45;100655.34;;;4.38;100.00
18900;BME280;9582;52.018;6.306;2022-12-08T07:05:11;100654.31;;;4.47;100.00
18900;BME280;9582;52.018;6.306;2022-12-08T07:07:38;100657.09;;;4.38;100.00
18900;BME280;9582;52.018;6.306;2022-12-08T07:10:06;100662.25;;;4.39;100.00
18900;BME280;9582;52.018;6.306;2022-12-08T07:12:32;100662.50;;;4.27;100.00
18900;BME280;9582;52.018;6.306;2022-12-08T07:14:59;100661.66;;;4.27;100.00
18900;BME280;9582;52.018;6.306;2022-12-08T07:17:26;100661.63;;;4.28;100.00
18900;BME280;9582;52.018;6.306;2022-12-08T07:19:53;100657.34;;;4.27;100.00
18900;BME280;9582;52.018;6.306;2022-12-08T07:22:20;100664.09;;;4.34;100.00
18900;BME280;9582;52.018;6.306;2022-12-08T07:24:46;100662.56;;;4.24;100.00
18900;BME280;9582;52.018;6.306;2022-12-08T07:27:13;100658.91;;;4.34;100.00
18900;BME280;9582;52.018;6.306;2022-12-08T07:29:39;100669.47;;;4.25;100.00
18900;BME280;9582;52.018;6.306;2022-12-08T07:32:06;100665.16;;;4.24;100.00
18900;BME280;9582;52.018;6.306;2022-12-08T07:34:33;100660.84;;;4.25;100.00
18900;BME280;9582;52.018;6.306;2022-12-08T07:37:01;100652.16;;;4.27;100.00
18900;BME280;9582;52.018;6.306;2022-12-08T07:39:27;100648.78;;;4.24;100.00
18900;BME280;9582;52.018;6.306;2022-12-08T07:41:54;100645.44;;;4.19;100.00
18900;BME280;9582;52.018;6.306;2022-12-08T07:44:20;100641.94;;;4.21;100.00
18900;BME280;9582;52.018;6.306;2022-12-08T07:46:47;100642.84;;;4.20;100.00
18900;BME280;9582;52.018;6.306;2022-12-08T07:49:13;100643.91;;;4.10;100.00
18900;BME280;9582;52.018;6.306;2022-12-08T07:51:40;100651.66;;;4.10;100.00
18900;BME280;9582;52.018;6.306;2022-12-08T07:54:10;100653.50;;;4.05;100.00
18900;BME280;9582;52.018;6.306;2022-12-08T07:56:37;100663.13;;;3.98;100.00
18900;BME280;9582;52.018;6.306;2022-12-08T07:59:03;100668.38;;;3.94;100.00
18900;BME280;9582;52.018;6.306;2022-12-08T08:01:31;100664.66;;;4.08;100.00
18900;BME280;9582;52.018;6.306;2022-12-08T08:04:00;100658.78;;;4.00;100.00
18900;BME280;9582;52.018;6.306;2022-12-08T08:06:28;100661.38;;;3.99;100.00
18900;BME280;9582;52.018;6.306;2022-12-08T08:08:55;100662.25;;;3.99;100.00
18900;BME280;9582;52.018;6.306;2022-12-08T08:11:23;100665.69;;;3.98;100.00
18900;BME280;9582;52.018;6.306;2022-12-08T08:13:50;100667.53;;;3.95;100.00
18900;BME280;9582;52.018;6.306;2022-12-08T08:16:17;100670.19;;;3.90;100.00
18900;BME280;9582;52.018;6.306;2022-12-08T08:18:45;100666.59;;;3.97;100.00
18900;BME280;9582;52.018;6.306;2022-12-08T08:21:12;100658.78;;;3.99;100.00
18900;BME280;9582;52.018;6.306;2022-12-08T08:23:38;100660.50;;;4.00;100.00
18900;BME280;9582;52.018;6.306;2022-12-08T08:26:05;100652.56;;;4.09;100.00
18900;BME280;9582;52.018;6.306;2022-12-08T08:28:33;100648.31;;;4.05;100.00
18900;BME280;9582;52.018;6.306;2022-12-08T08:30:59;100653.59;;;4.00;100.00
18900;BME280;9582;52.018;6.306;2022-12-08T08:33:26;100654.78;;;4.26;100.00
18900;BME280;9582;52.018;6.306;2022-12-08T08:35:53;100659.25;;;5.60;100.00
18900;BME280;9582;52.018;6.306;2022-12-08T08:38:21;100657.00;;;4.42;100.00
18900;BME280;9582;52.018;6.306;2022-12-08T08:40:47;100656.09;;;4.45;100.00
18900;BME280;9582;52.018;6.306;2022-12-08T08:43:14;100657.94;;;4.40;100.00
18900;BME280;9582;52.018;6.306;2022-12-08T08:45:56;100667.69;;;4.27;100.00
18900;BME280;9582;52.018;6.306;2022-12-08T08:48:23;100673.66;;;4.31;100.00
18900;BME280;9582;52.018;6.306;2022-12-08T08:50:50;100674.50;;;4.31;100.00
18900;BME280;9582;52.018;6.306;2022-12-08T08:53:17;100671.94;;;4.30;100.00
18900;BME280;9582;52.018;6.306;2022-12-08T08:55:43;100671.09;;;4.29;100.00
18900;BME280;9582;52.018;6.306;2022-12-08T08:58:10;100671.88;;;4.33;100.00
18900;BME280;9582;52.018;6.306;2022-12-08T09:00:36;100678.03;;;4.29;100.00
18900;BME280;9582;52.018;6.306;2022-12-08T09:03:04;100671.94;;;4.30;100.00
18900;BME280;9582;52.018;6.306;2022-12-08T09:05:31;100672.78;;;4.30;100.00
18900;BME280;9582;52.018;6.306;2022-12-08T09:07:57;100678.13;;;4.62;100.00
18900;BME280;9582;52.018;6.306;2022-12-08T09:10:24;100681.91;;;4.46;100.00
18900;BME280;9582;52.018;6.306;2022-12-08T09:12:50;100676.66;;;4.51;100.00
18900;BME280;9582;52.018;6.306;2022-12-08T09:15:17;100683.41;;;4.58;100.00
18900;BME280;9582;52.018;6.306;2022-12-08T09:17:45;100679.22;;;4.52;100.00
18900;BME280;9582;52.018;6.306;2022-12-08T09:20:12;100680.25;;;4.45;100.00
18900;BME280;9582;52.018;6.306;2022-12-08T09:22:39;100678.34;;;4.52;100.00
18900;BME280;9582;52.018;6.306;2022-12-08T09:25:06;100678.28;;;5.27;100.00
18900;BME280;9582;52.018;6.306;2022-12-08T09:27:33;100671.88;;;5.08;100.00
18900;BME280;9582;52.018;6.306;2022-12-08T09:29:59;100668.66;;;4.97;100.00
18900;BME280;9582;52.018;6.306;2022-12-08T09:32:26;100665.91;;;5.04;100.00
18900;BME280;9582;52.018;6.306;2022-12-08T09:34:52;100674.69;;;4.97;100.00
18900;BME280;9582;52.018;6.306;2022-12-08T09:37:20;100678.19;;;4.96;100.00
18900;BME280;9582;52.018;6.306;2022-12-08T09:39:47;100677.66;;;5.17;100.00
18900;BME280;9582;52.018;6.306;2022-12-08T09:42:18;100678.78;;;5.07;100.00
18900;BME280;9582;52.018;6.306;2022-12-08T09:44:53;100685.72;;;5.05;100.00
18900;BME280;9582;52.018;6.306;2022-12-08T09:47:24;100682.47;;;4.97;100.00
18900;BME280;9582;52.018;6.306;2022-12-08T09:49:58;100681.72;;;4.92;100.00
18900;BME280;9582;52.018;6.306;2022-12-08T09:52:32;100679.25;;;4.88;100.00
18900;BME280;9582;52.018;6.306;2022-12-08T09:55:05;100679.69;;;4.70;100.00
18900;BME280;9582;52.018;6.306;2022-12-08T09:57:35;100676.38;;;4.63;100.00
18900;BME280;9582;52.018;6.306;2022-12-08T10:00:05;100678.06;;;4.65;100.00
18900;BME280;9582;52.018;6.306;2022-12-08T10:02:32;100676.09;;;4.75;100.00
18900;BME280;9582;52.018;6.306;2022-12-08T10:04:59;100677.13;;;4.68;100.00
18900;BME280;9582;52.018;6.306;2022-12-08T10:07:32;100673.81;;;5.32;100.00
18900;BME280;9582;52.018;6.306;2022-12-08T10:10:06;100664.50;;;5.25;100.00
18900;BME280;9582;52.018;6.306;2022-12-08T10:12:41;100669.88;;;5.51;100.00
18900;BME280;9582;52.018;6.306;2022-12-08T10:15:29;100669.06;;;4.80;100.00
18900;BME280;9582;52.018;6.306;2022-12-08T10:18:00;100668.97;;;4.85;100.00
18900;BME280;9582;52.018;6.306;2022-12-08T10:20:35;100669.00;;;4.83;100.00
18900;BME280;9582;52.018;6.306;2022-12-08T10:23:07;100665.66;;;4.78;100.00
18900;BME280;9582;52.018;6.306;2022-12-08T10:25:36;100660.75;;;4.68;100.00
18900;BME280;9582;52.018;6.306;2022-12-08T10:28:07;100654.56;;;4.73;100.00
18900;BME280;9582;52.018;6.306;2022-12-08T10:30:34;100653.59;;;4.77;100.00
18900;BME280;9582;52.018;6.306;2022-12-08T10:33:01;100654.97;;;4.92;100.00
18900;BME280;9582;52.018;6.306;2022-12-08T10:35:42;100661.75;;;4.97;100.00
18900;BME280;9582;52.018;6.306;2022-12-08T10:38:17;100654.09;;;4.91;100.00
18900;BME280;9582;52.018;6.306;2022-12-08T10:40:46;100648.91;;;4.93;100.00
18900;BME280;9582;52.018;6.306;2022-12-08T10:43:16;100645.34;;;4.97;100.00
18900;BME280;9582;52.018;6.306;2022-12-08T10:45:44;100647.19;;;4.92;100.00
18900;BME280;9582;52.018;6.306;2022-12-08T10:48:15;100644.72;;;4.87;100.00
18900;BME280;9582;52.018;6.306;2022-12-08T10:50:43;100640.56;;;4.82;100.00
18900;BME280;9582;52.018;6.306;2022-12-08T10:53:12;100644.00;;;4.81;100.00
18900;BME280;9582;52.018;6.306;2022-12-08T10:55:43;100644.94;;;4.78;100.00
18900;BME280;9582;52.018;6.306;2022-12-08T10:58:23;100637.03;;;4.84;100.00
18900;BME280;9582;52.018;6.306;2022-12-08T11:00:50;100638.88;;;4.79;100.00
18900;BME280;9582;52.018;6.306;2022-12-08T11:03:22;100638.16;;;4.73;100.00
18900;BME280;9582;52.018;6.306;2022-12-08T11:05:55;100639.88;;;4.74;100.00
18900;BME280;9582;52.018;6.306;2022-12-08T11:08:22;100645.00;;;4.75;100.00
18900;BME280;9582;52.018;6.306;2022-12-08T11:10:50;100645.06;;;4.74;100.00
18900;BME280;9582;52.018;6.306;2022-12-08T11:13:20;100645.94;;;4.73;100.00
18900;BME280;9582;52.018;6.306;2022-12-08T11:15:48;100642.47;;;4.74;100.00
18900;BME280;9582;52.018;6.306;2022-12-08T11:18:24;100645.09;;;4.72;100.00
18900;BME280;9582;52.018;6.306;2022-12-08T11:21:01;100652.78;;;4.75;100.00
18900;BME280;9582;52.018;6.306;2022-12-08T11:23:34;100646.72;;;4.76;100.00
18900;BME280;9582;52.018;6.306;2022-12-08T11:26:06;100644.81;;;4.84;100.00
18900;BME280;9582;52.018;6.306;2022-12-08T11:28:35;100636.16;;;4.84;100.00
18900;BME280;9582;52.018;6.306;2022-12-08T11:31:06;100640.63;;;4.77;100.00
18900;BME280;9582;52.018;6.306;2022-12-08T11:33:35;100637.16;;;4.80;100.00
18900;BME280;9582;52.018;6.306;2022-12-08T11:36:04;100633.50;;;4.87;100.00
18900;BME280;9582;52.018;6.306;2022-12-08T11:38:38;100625.78;;;4.85;100.00
18900;BME280;9582;52.018;6.306;2022-12-08T11:41:10;100631.88;;;4.83;100.00
18900;BME280;9582;52.018;6.306;2022-12-08T11:43:43;100624.16;;;4.81;100.00
18900;BME280;9582;52.018;6.306;2022-12-08T11:46:14;100623.22;;;4.84;100.00
18900;BME280;9582;52.018;6.306;2022-12-08T11:48:45;100625.06;;;4.79;100.00
18900;BME280;9582;52.018;6.306;2022-12-08T11:51:17;100622.50;;;4.77;100.00
18900;BME280;9582;52.018;6.306;2022-12-08T11:53:52;100622.50;;;4.79;100.00
18900;BME280;9582;52.018;6.306;2022-12-08T11:56:28;100621.63;;;4.80;100.00
18900;BME280;9582;52.018;6.306;2022-12-08T11:59:00;100616.25;;;4.86;100.00
18900;BME280;9582;52.018;6.306;2022-12-08T12:01:28;100619.59;;;4.91;100.00
18900;BME280;9582;52.018;6.306;2022-12-08T12:04:00;100612.72;;;4.90;100.00
18900;BME280;9582;52.018;6.306;2022-12-08T12:09:30;100605.88;;;4.87;100.00
18900;BME280;9582;52.018;6.306;2022-12-08T12:12:07;100607.22;;;5.02;100.00
18900;BME280;9582;52.018;6.306;2022-12-08T12:14:50;100603.41;;;5.15;100.00
18900;BME280;9582;52.018;6.306;2022-12-08T12:17:30;100597.22;;;5.20;100.00
18900;BME280;9582;52.018;6.306;2022-12-08T12:20:03;100602.69;;;5.10;100.00
18900;BME280;9582;52.018;6.306;2022-12-08T12:22:36;100590.75;;;5.04;100.00
18900;BME280;9582;52.018;6.306;2022-12-08T12:25:04;100593.28;;;5.06;100.00
18900;BME280;9582;52.018;6.306;2022-12-08T12:27:37;100602.91;;;5.02;100.00
18900;BME280;9582;52.018;6.306;2022-12-08T12:30:07;100604.63;;;5.02;100.00
18900;BME280;9582;52.018;6.306;2022-12-08T12:32:44;100596.09;;;4.97;100.00
18900;BME280;9582;52.018;6.306;2022-12-08T12:35:15;100594.38;;;4.97;100.00
18900;BME280;9582;52.018;6.306;2022-12-08T12:37:44;100591.84;;;4.94;100.00
18900;BME280;9582;52.018;6.306;2022-12-08T12:40:16;100596.22;;;4.94;100.00
18900;BME280;9582;52.018;6.306;2022-12-08T12:42:46;100581.69;;;4.87;100.00
18900;BME280;9582;52.018;6.306;2022-12-08T12:45:27;100586.81;;;4.90;100.00
18900;BME280;9582;52.018;6.306;2022-12-08T12:48:12;100582.47;;;4.90;100.00
18900;BME280;9582;52.018;6.306;2022-12-08T12:50:44;100579.91;;;4.89;100.00
18900;BME280;9582;52.018;6.306;2022-12-08T12:53:45;100579.66;;;4.99;100.00
18900;BME280;9582;52.018;6.306;2022-12-08T12:56:45;100581.50;;;4.94;100.00
18900;BME280;9582;52.018;6.306;2022-12-08T12:59:34;100571.91;;;4.98;100.00
18900;BME280;9582;52.018;6.306;2022-12-08T13:02:01;100570.09;;;5.01;100.00
18900;BME280;9582;52.018;6.306;2022-12-08T13:04:30;100574.50;;;4.98;100.00
18900;BME280;9582;52.018;6.306;2022-12-08T13:06:58;100579.59;;;5.01;100.00
18900;BME280;9582;52.018;6.306;2022-12-08T13:09:31;100578.75;;;5.00;100.00
18900;BME280;9582;52.018;6.306;2022-12-08T13:12:00;100568.38;;;5.02;100.00
18900;BME280;9582;52.018;6.306;2022-12-08T13:14:37;100572.78;;;4.97;100.00